Time;durP1;ratioP1;P1;durP2;ratioP2;P2;SDS_P1;SDS_P2;PMS_P1;PMS_P2;Temp;Humidity;BMP_temperature;BMP_pressure;BME280_temperature;BME280_humidity;BME280_pressure;Samples;Min_cycle;Max_cycle;Signal;HPM_P1;HPM_P2
2021/03/02 00:01:11;;;;;;;13.30;7.03;;;;;;;;;;5072262;28;20839;-66
2021/03/02 00:03:38;;;;;;;13.27;7.60;;;;;;;;;;5070411;28;20588;-66
2021/03/02 00:06:07;;;;;;;13.20;7.17;;;;;;;;;;5071767;28;20428;-66
2021/03/02 00:08:36;;;;;;;11.73;6.60;;;;;;;;;;5070914;28;20824;-66
2021/03/02 00:11:02;;;;;;;10.20;6.73;;;;;;;;;;5071777;28;20471;-66
2021/03/02 00:13:29;;;;;;;16.87;7.30;;;;;;;;;;5070856;28;20429;-66
2021/03/02 00:15:56;;;;;;;11.73;7.53;;;;;;;;;;5071960;28;20474;-66
2021/03/02 00:18:25;;;;;;;12.60;6.60;;;;;;;;;;5070882;28;20515;-66
2021/03/02 00:20:56;;;;;;;16.03;8.20;;;;;;;;;;5072138;28;20416;-66
2021/03/02 00:23:25;;;;;;;10.93;7.00;;;;;;;;;;5073729;28;20435;-66
2021/03/02 00:25:54;;;;;;;13.97;7.30;;;;;;;;;;5075370;28;20447;-66
2021/03/02 00:28:22;;;;;;;10.60;7.83;;;;;;;;;;5074498;28;20432;-66
2021/03/02 00:30:49;;;;;;;12.57;6.73;;;;;;;;;;5075715;28;20471;-66
2021/03/02 00:33:15;;;;;;;15.00;7.50;;;;;;;;;;5074729;28;20446;-65
2021/03/02 00:35:41;;;;;;;13.63;7.43;;;;;;;;;;5075466;28;20432;-66
2021/03/02 00:38:07;;;;;;;13.80;7.13;;;;;;;;;;5073937;28;20934;-66
2021/03/02 00:40:33;;;;;;;13.73;7.40;;;;;;;;;;5075120;28;20465;-66
2021/03/02 00:42:59;;;;;;;14.60;6.80;;;;;;;;;;5055505;28;20457;-66
2021/03/02 00:45:26;;;;;;;15.50;7.33;;;;;;;;;;5075146;28;20521;-67
2021/03/02 00:47:52;;;;;;;8.97;6.80;;;;;;;;;;5074111;28;20431;-66
2021/03/02 00:50:18;;;;;;;14.77;7.53;;;;;;;;;;5074151;28;20544;-66
2021/03/02 00:52:44;;;;;;;12.70;7.17;;;;;;;;;;5073916;28;20499;-66
2021/03/02 00:55:11;;;;;;;12.97;7.67;;;;;;;;;;5057040;28;20431;-66
2021/03/02 00:57:37;;;;;;;10.00;7.37;;;;;;;;;;5055996;28;20445;-66
2021/03/02 01:00:04;;;;;;;16.67;8.17;;;;;;;;;;5074807;28;20424;-66
2021/03/02 01:02:30;;;;;;;14.60;6.30;;;;;;;;;;5073761;28;20423;-66
2021/03/02 01:04:56;;;;;;;15.30;6.63;;;;;;;;;;5074646;28;20402;-66
2021/03/02 01:07:22;;;;;;;13.03;6.60;;;;;;;;;;5073834;28;20433;-66
2021/03/02 01:09:48;;;;;;;11.90;6.80;;;;;;;;;;5074766;28;20406;-66
2021/03/02 01:12:14;;;;;;;12.00;6.40;;;;;;;;;;5073499;28;20926;-66
2021/03/02 01:14:40;;;;;;;15.40;6.47;;;;;;;;;;5074549;28;20415;-66
2021/03/02 01:17:07;;;;;;;7.90;5.80;;;;;;;;;;5073180;28;20490;-66
2021/03/02 01:19:33;;;;;;;15.17;6.20;;;;;;;;;;5074811;28;20482;-66
2021/03/02 01:21:59;;;;;;;14.30;6.77;;;;;;;;;;5052716;28;20888;-65
2021/03/02 01:24:25;;;;;;;11.50;6.43;;;;;;;;;;5072153;28;20466;-68
2021/03/02 01:26:51;;;;;;;9.67;5.80;;;;;;;;;;5074228;28;20527;-66
2021/03/02 01:29:17;;;;;;;13.17;7.03;;;;;;;;;;5073409;28;20419;-66
2021/03/02 01:31:43;;;;;;;15.50;7.30;;;;;;;;;;5074360;28;20459;-66
2021/03/02 01:34:09;;;;;;;11.23;6.30;;;;;;;;;;5072113;28;20427;-66
2021/03/02 01:36:35;;;;;;;7.80;5.13;;;;;;;;;;5072791;28;20462;-65
2021/03/02 01:39:01;;;;;;;10.60;6.80;;;;;;;;;;5073175;28;20515;-66
2021/03/02 01:41:27;;;;;;;10.47;6.60;;;;;;;;;;5073934;28;20428;-66
2021/03/02 01:43:53;;;;;;;11.00;6.80;;;;;;;;;;5072723;28;20435;-66
2021/03/02 01:46:19;;;;;;;14.90;6.20;;;;;;;;;;5072661;28;20937;-66
2021/03/02 01:48:46;;;;;;;10.60;7.53;;;;;;;;;;5072563;28;20435;-66
2021/03/02 01:51:12;;;;;;;17.33;6.90;;;;;;;;;;5073687;28;20412;-66
2021/03/02 01:53:38;;;;;;;19.50;7.13;;;;;;;;;;5071756;28;20514;-67
2021/03/02 01:56:04;;;;;;;10.67;7.67;;;;;;;;;;5073613;28;20451;-66
2021/03/02 01:58:30;;;;;;;10.87;7.03;;;;;;;;;;5072561;28;20459;-65
2021/03/02 02:00:58;;;;;;;9.90;7.20;;;;;;;;;;5073410;28;20433;-66
2021/03/02 02:03:27;;;;;;;14.23;5.80;;;;;;;;;;5072528;28;20427;-65
2021/03/02 02:06:02;;;;;;;10.40;6.10;;;;;;;;;;5073450;28;20909;-66
2021/03/02 02:08:33;;;;;;;11.20;7.30;;;;;;;;;;5072231;28;20518;-66
2021/03/02 02:11:02;;;;;;;11.90;7.53;;;;;;;;;;5073698;28;20397;-66
2021/03/02 02:13:31;;;;;;;12.57;6.37;;;;;;;;;;5073056;28;20562;-66
2021/03/02 02:15:59;;;;;;;10.13;7.10;;;;;;;;;;5073496;28;20421;-65
2021/03/02 02:18:29;;;;;;;11.60;6.13;;;;;;;;;;5072587;28;20454;-66
2021/03/02 02:21:07;;;;;;;15.10;7.10;;;;;;;;;;5072970;28;20494;-66
2021/03/02 02:23:48;;;;;;;13.50;6.40;;;;;;;;;;5054275;28;20951;-66
2021/03/02 02:26:17;;;;;;;14.50;7.90;;;;;;;;;;5072999;28;20450;-66
2021/03/02 02:28:44;;;;;;;10.23;7.10;;;;;;;;;;5072005;28;20447;-66
2021/03/02 02:31:11;;;;;;;13.20;5.87;;;;;;;;;;5073078;28;20492;-66
2021/03/02 02:33:39;;;;;;;14.37;6.40;;;;;;;;;;5071792;28;20425;-66
2021/03/02 02:36:07;;;;;;;10.67;6.73;;;;;;;;;;5071365;28;20473;-65
2021/03/02 02:38:33;;;;;;;14.40;7.20;;;;;;;;;;5071922;28;20824;-66
2021/03/02 02:41:00;;;;;;;11.03;6.93;;;;;;;;;;5071294;28;20909;-66
2021/03/02 02:43:26;;;;;;;16.90;8.03;;;;;;;;;;5053241;28;20899;-66
2021/03/02 02:45:53;;;;;;;19.20;8.47;;;;;;;;;;5071832;28;20770;-67
2021/03/02 02:48:19;;;;;;;9.73;6.17;;;;;;;;;;5072993;28;20409;-67
2021/03/02 02:50:46;;;;;;;13.23;7.57;;;;;;;;;;5070728;28;20450;-66
2021/03/02 02:53:12;;;;;;;11.90;7.27;;;;;;;;;;5072717;28;20401;-67
2021/03/02 02:55:44;;;;;;;12.60;6.83;;;;;;;;;;5053823;28;20854;-67
2021/03/02 02:58:11;;;;;;;11.83;6.60;;;;;;;;;;5070015;28;20453;-66
2021/03/02 03:00:37;;;;;;;11.87;7.17;;;;;;;;;;5071428;28;20422;-68
2021/03/02 03:03:06;;;;;;;14.97;6.47;;;;;;;;;;5071528;28;20471;-67
2021/03/02 03:05:32;;;;;;;9.03;6.73;;;;;;;;;;5071699;28;20448;-67
2021/03/02 03:08:02;;;;;;;12.90;6.60;;;;;;;;;;5072613;28;20467;-67
2021/03/02 03:10:29;;;;;;;13.00;7.20;;;;;;;;;;5071523;28;20518;-67
2021/03/02 03:13:00;;;;;;;14.10;8.00;;;;;;;;;;5072444;28;20402;-67
2021/03/02 03:15:27;;;;;;;10.93;6.47;;;;;;;;;;5053648;28;20437;-67
2021/03/02 03:17:54;;;;;;;11.40;7.13;;;;;;;;;;5070144;28;20450;-67
2021/03/02 03:20:22;;;;;;;9.27;6.30;;;;;;;;;;5071193;28;20445;-67
2021/03/02 03:22:48;;;;;;;11.30;6.70;;;;;;;;;;5054409;28;20918;-67
2021/03/02 03:25:14;;;;;;;11.93;6.67;;;;;;;;;;5053336;28;20475;-67
2021/03/02 03:27:41;;;;;;;9.77;6.73;;;;;;;;;;5072431;28;20403;-67
2021/03/02 03:30:07;;;;;;;16.40;7.50;;;;;;;;;;5070353;28;20834;-67
2021/03/02 03:32:34;;;;;;;14.93;7.03;;;;;;;;;;5072497;28;20398;-67
2021/03/02 03:35:01;;;;;;;13.30;6.80;;;;;;;;;;5071272;28;20798;-66
2021/03/02 03:37:27;;;;;;;13.03;7.63;;;;;;;;;;5072252;28;20455;-67
2021/03/02 03:39:53;;;;;;;15.23;6.67;;;;;;;;;;5071221;28;20907;-66
2021/03/02 03:42:19;;;;;;;17.03;7.47;;;;;;;;;;5072181;28;20417;-67
2021/03/02 03:44:45;;;;;;;15.53;6.47;;;;;;;;;;5071605;28;20438;-67
2021/03/02 03:47:11;;;;;;;12.70;6.80;;;;;;;;;;5054193;28;20955;-67
2021/03/02 03:49:37;;;;;;;16.30;6.43;;;;;;;;;;5071166;28;20401;-66
2021/03/02 03:52:05;;;;;;;11.30;6.50;;;;;;;;;;5072380;28;20412;-67
2021/03/02 03:54:33;;;;;;;10.47;6.03;;;;;;;;;;5071318;28;20399;-67
2021/03/02 03:56:59;;;;;;;11.70;5.87;;;;;;;;;;5071344;28;20807;-67
2021/03/02 03:59:25;;;;;;;16.20;7.13;;;;;;;;;;5075657;28;20418;-66
2021/03/02 04:01:52;;;;;;;16.80;6.23;;;;;;;;;;5075576;28;20407;-67
2021/03/02 04:04:20;;;;;;;16.73;7.03;;;;;;;;;;5076156;28;20499;-67
2021/03/02 04:06:46;;;;;;;14.90;7.10;;;;;;;;;;5074962;28;20885;-67
2021/03/02 04:09:13;;;;;;;16.30;7.00;;;;;;;;;;5075761;28;20397;-67
2021/03/02 04:11:39;;;;;;;18.60;7.23;;;;;;;;;;5074842;28;20779;-67
2021/03/02 04:14:05;;;;;;;10.27;7.30;;;;;;;;;;5076073;28;20401;-67
2021/03/02 04:16:32;;;;;;;13.83;6.53;;;;;;;;;;5074739;28;20459;-67
2021/03/02 04:18:58;;;;;;;14.07;6.73;;;;;;;;;;5075811;28;21044;-67
2021/03/02 04:21:24;;;;;;;16.30;6.60;;;;;;;;;;5074413;28;20441;-66
2021/03/02 04:23:50;;;;;;;14.30;7.37;;;;;;;;;;5074675;28;20894;-65
2021/03/02 04:26:16;;;;;;;14.10;7.53;;;;;;;;;;5056428;28;20455;-66
2021/03/02 04:28:42;;;;;;;12.00;6.70;;;;;;;;;;5075584;28;20492;-66
2021/03/02 04:31:08;;;;;;;13.67;6.80;;;;;;;;;;5073775;28;20571;-66
2021/03/02 04:33:34;;;;;;;15.20;8.80;;;;;;;;;;5075297;28;20460;-66
2021/03/02 04:36:00;;;;;;;13.60;6.80;;;;;;;;;;5074236;28;20475;-65
2021/03/02 04:38:26;;;;;;;14.70;7.40;;;;;;;;;;5075528;28;20529;-66
2021/03/02 04:40:52;;;;;;;10.20;6.10;;;;;;;;;;5074147;28;20428;-65
2021/03/02 04:43:18;;;;;;;11.13;6.30;;;;;;;;;;5075210;28;20394;-66
2021/03/02 04:45:44;;;;;;;10.50;7.10;;;;;;;;;;5074031;28;20542;-66
2021/03/02 04:48:11;;;;;;;11.33;6.63;;;;;;;;;;5057019;28;20498;-66
2021/03/02 04:50:37;;;;;;;12.13;7.27;;;;;;;;;;5074244;28;20459;-65
2021/03/02 04:53:03;;;;;;;15.03;6.80;;;;;;;;;;5074978;28;20464;-66
2021/03/02 04:55:29;;;;;;;11.70;6.60;;;;;;;;;;5055995;28;20559;-66
2021/03/02 04:57:55;;;;;;;13.97;6.17;;;;;;;;;;5074918;28;20538;-66
2021/03/02 05:00:21;;;;;;;11.23;8.30;;;;;;;;;;5073806;28;20494;-65
2021/03/02 05:02:47;;;;;;;13.57;7.43;;;;;;;;;;5075336;28;20409;-66
2021/03/02 05:05:13;;;;;;;12.27;7.13;;;;;;;;;;5071938;28;20448;-66
2021/03/02 05:07:39;;;;;;;11.13;6.43;;;;;;;;;;5074656;28;20499;-66
2021/03/02 05:10:05;;;;;;;12.43;7.13;;;;;;;;;;5072828;28;20428;-65
2021/03/02 05:12:31;;;;;;;11.10;6.97;;;;;;;;;;5074689;28;20447;-66
2021/03/02 05:14:57;;;;;;;13.33;7.53;;;;;;;;;;5073690;28;20431;-65
2021/03/02 05:17:23;;;;;;;13.00;6.10;;;;;;;;;;5074556;28;20588;-66
2021/03/02 05:19:49;;;;;;;18.30;8.77;;;;;;;;;;5073779;28;20919;-65
2021/03/02 05:22:15;;;;;;;10.40;6.70;;;;;;;;;;5074122;28;20424;-67
2021/03/02 05:24:41;;;;;;;12.97;6.83;;;;;;;;;;5074248;28;20409;-66
2021/03/02 05:27:07;;;;;;;12.40;7.03;;;;;;;;;;5108097;22;20488;-80
2021/03/02 05:29:33;;;;;;;10.63;6.70;;;;;;;;;;5103877;28;20404;-80
2021/03/02 05:32:00;;;;;;;12.90;7.23;;;;;;;;;;5085200;28;20426;-82
2021/03/02 05:34:26;;;;;;;12.73;6.87;;;;;;;;;;5104140;28;20417;-79
2021/03/02 05:36:52;;;;;;;16.23;8.47;;;;;;;;;;5088244;28;20422;-81
2021/03/02 05:39:18;;;;;;;13.67;7.27;;;;;;;;;;5101420;22;20493;-66
2021/03/02 05:41:44;;;;;;;17.27;7.37;;;;;;;;;;5095303;28;20426;-66
2021/03/02 05:44:11;;;;;;;15.13;6.13;;;;;;;;;;5095490;28;20403;-66
2021/03/02 05:46:40;;;;;;;12.90;7.23;;;;;;;;;;5094316;28;20437;-66
2021/03/02 05:49:06;;;;;;;12.80;6.97;;;;;;;;;;5094897;28;20401;-66
2021/03/02 05:51:33;;;;;;;16.67;8.00;;;;;;;;;;5093667;28;20420;-66
2021/03/02 05:53:59;;;;;;;16.63;7.53;;;;;;;;;;5094881;28;20487;-66
2021/03/02 05:56:25;;;;;;;12.30;7.63;;;;;;;;;;5093979;28;20821;-66
2021/03/02 05:58:52;;;;;;;14.33;6.70;;;;;;;;;;5094716;28;20814;-66
2021/03/02 06:01:18;;;;;;;17.60;7.10;;;;;;;;;;5092431;28;20428;-66
2021/03/02 06:03:44;;;;;;;14.07;7.47;;;;;;;;;;5094791;28;20405;-66
2021/03/02 06:06:10;;;;;;;22.10;7.57;;;;;;;;;;5091668;28;20448;-66
2021/03/02 06:08:36;;;;;;;10.97;5.90;;;;;;;;;;5094284;28;20812;-66
2021/03/02 06:11:20;;;;;;;11.80;7.50;;;;;;;;;;5093205;28;20423;-66
2021/03/02 06:13:46;;;;;;;16.10;8.10;;;;;;;;;;5094496;28;20474;-66
2021/03/02 06:16:12;;;;;;;16.57;7.30;;;;;;;;;;5093135;28;21017;-66
2021/03/02 06:18:46;;;;;;;16.07;7.33;;;;;;;;;;5094529;28;20468;-66
2021/03/02 06:21:12;;;;;;;10.37;6.10;;;;;;;;;;5092722;28;20829;-66
2021/03/02 06:23:45;;;;;;;12.07;6.23;;;;;;;;;;5094132;28;20459;-66
2021/03/02 06:26:11;;;;;;;24.43;6.87;;;;;;;;;;5093253;28;20810;-66
2021/03/02 06:28:44;;;;;;;21.73;6.90;;;;;;;;;;5094055;28;20417;-66
2021/03/02 06:31:28;;;;;;;13.50;7.10;;;;;;;;;;5093268;28;20464;-66
2021/03/02 06:34:06;;;;;;;10.70;5.73;;;;;;;;;;5093910;28;20411;-66
2021/03/02 06:36:32;;;;;;;16.47;7.13;;;;;;;;;;5090981;28;20463;-66
2021/03/02 06:38:58;;;;;;;20.70;7.40;;;;;;;;;;5093840;28;20817;-66
2021/03/02 06:41:24;;;;;;;19.43;8.27;;;;;;;;;;5093191;28;20966;-66
2021/03/02 06:43:50;;;;;;;15.27;8.10;;;;;;;;;;5092918;28;20429;-66
2021/03/02 06:46:18;;;;;;;14.53;6.77;;;;;;;;;;5085382;28;20475;-66
2021/03/02 06:48:57;;;;;;;11.20;6.40;;;;;;;;;;5055532;28;20412;-65
2021/03/02 06:51:25;;;;;;;13.07;8.30;;;;;;;;;;5078027;28;20422;-66
2021/03/02 06:54:12;;;;;;;11.83;7.33;;;;;;;;;;5093888;28;20424;-65
2021/03/02 06:56:41;;;;;;;19.20;8.37;;;;;;;;;;5086470;28;20562;-65
2021/03/02 06:59:14;;;;;;;17.63;7.70;;;;;;;;;;5088466;28;20514;-68
2021/03/02 07:01:41;;;;;;;11.40;7.80;;;;;;;;;;5092402;28;20431;-72
2021/03/02 07:04:11;;;;;;;18.03;8.47;;;;;;;;;;5093125;28;20415;-68
2021/03/02 07:06:38;;;;;;;15.50;8.57;;;;;;;;;;5089999;28;20490;-69
2021/03/02 07:09:05;;;;;;;14.80;8.53;;;;;;;;;;5093184;28;20411;-69
2021/03/02 07:11:31;;;;;;;16.60;9.00;;;;;;;;;;5091690;28;20496;-71
2021/03/02 07:13:57;;;;;;;18.47;8.67;;;;;;;;;;5091336;28;20771;-71
2021/03/02 07:16:24;;;;;;;17.17;8.83;;;;;;;;;;5091347;28;20518;-69
2021/03/02 07:18:51;;;;;;;18.50;8.83;;;;;;;;;;5075025;28;20457;-71
2021/03/02 07:21:18;;;;;;;18.30;8.17;;;;;;;;;;5091630;28;20426;-71
2021/03/02 07:23:44;;;;;;;18.95;9.20;;;;;;;;;;5091148;28;20785;-66
2021/03/02 07:26:14;;;;;;;16.58;10.02;;;;;;;;;;5090355;28;20409;-68
2021/03/02 07:28:41;;;;;;;11.47;8.10;;;;;;;;;;5093102;28;20180;-68
2021/03/02 07:31:09;;;;;;;14.30;9.13;;;;;;;;;;5092623;28;20407;-68
2021/03/02 07:33:35;;;;;;;17.53;8.27;;;;;;;;;;5078400;28;20448;-67
2021/03/02 07:36:01;;;;;;;14.77;8.47;;;;;;;;;;5097454;28;20483;-70
2021/03/02 07:38:27;;;;;;;21.23;8.33;;;;;;;;;;5096182;28;20459;-70
2021/03/02 07:40:54;;;;;;;18.10;8.53;;;;;;;;;;5097187;28;20427;-70
2021/03/02 07:43:26;;;;;;;20.13;8.50;;;;;;;;;;5096871;28;20430;-70
2021/03/02 07:45:53;;;;;;;12.00;7.73;;;;;;;;;;5100196;28;20422;-70
2021/03/02 07:48:28;;;;;;;16.00;8.00;;;;;;;;;;5097331;28;20933;-69
2021/03/02 07:51:13;;;;;;;16.17;8.63;;;;;;;;;;5097950;28;20408;-69
2021/03/02 07:53:40;;;;;;;15.77;9.63;;;;;;;;;;5096934;28;20423;-68
2021/03/02 07:56:24;;;;;;;13.53;8.43;;;;;;;;;;5097010;28;20817;-71
2021/03/02 07:59:13;;;;;;;19.33;9.40;;;;;;;;;;5083748;28;20886;-70
2021/03/02 08:01:39;;;;;;;15.60;8.60;;;;;;;;;;5078904;28;20506;-70
2021/03/02 08:04:14;;;;;;;43.10;10.87;;;;;;;;;;5091183;28;20417;-70
2021/03/02 08:06:41;;;;;;;14.60;8.87;;;;;;;;;;5084717;28;20513;-70
2021/03/02 08:09:22;;;;;;;17.07;8.30;;;;;;;;;;5089619;28;20415;-74
2021/03/02 08:11:50;;;;;;;14.40;9.32;;;;;;;;;;5087199;28;20975;-79
2021/03/02 08:14:16;;;;;;;19.40;9.93;;;;;;;;;;5089416;28;20188;-69
2021/03/02 08:16:53;;;;;;;14.00;8.93;;;;;;;;;;5086559;28;20503;-74
2021/03/02 08:19:37;;;;;;;22.20;9.53;;;;;;;;;;5088359;28;20475;-75
2021/03/02 08:22:25;;;;;;;17.03;9.50;;;;;;;;;;5090325;28;20437;-74
2021/03/02 08:24:54;;;;;;;13.97;8.90;;;;;;;;;;5087261;28;20413;-73
2021/03/02 08:27:36;;;;;;;15.47;8.90;;;;;;;;;;5089664;28;20453;-74
2021/03/02 08:30:02;;;;;;;13.00;8.77;;;;;;;;;;5093046;28;20437;-76
2021/03/02 08:32:30;;;;;;;15.47;10.07;;;;;;;;;;5090928;28;20469;-71
2021/03/02 08:35:02;;;;;;;18.03;10.03;;;;;;;;;;5093518;28;20422;-71
2021/03/02 08:37:38;;;;;;;14.57;8.70;;;;;;;;;;5092598;28;20485;-71
2021/03/02 08:40:04;;;;;;;18.10;8.73;;;;;;;;;;5093608;28;20464;-71
2021/03/02 08:42:30;;;;;;;16.13;7.97;;;;;;;;;;5092074;28;20437;-71
2021/03/02 08:45:06;;;;;;;14.90;8.53;;;;;;;;;;5093328;28;20428;-71
2021/03/02 08:47:32;;;;;;;12.53;8.03;;;;;;;;;;5088125;28;20472;-71
2021/03/02 08:49:58;;;;;;;12.83;7.80;;;;;;;;;;5093423;28;20435;-71
2021/03/02 08:52:35;;;;;;;13.13;6.63;;;;;;;;;;5069335;28;20494;-72
2021/03/02 08:55:01;;;;;;;12.07;8.00;;;;;;;;;;5087132;28;20525;-71
2021/03/02 08:57:27;;;;;;;13.40;8.00;;;;;;;;;;5073199;28;20490;-71
2021/03/02 08:59:53;;;;;;;13.33;8.03;;;;;;;;;;5080552;28;20412;-72
2021/03/02 09:02:19;;;;;;;15.73;8.90;;;;;;;;;;5089649;28;20426;-76
2021/03/02 09:04:45;;;;;;;14.67;9.87;;;;;;;;;;5091507;28;20419;-68
2021/03/02 09:07:12;;;;;;;14.45;9.10;;;;;;;;;;5087795;28;20432;-73
2021/03/02 09:09:38;;;;;;;15.65;9.00;;;;;;;;;;5086499;28;20908;-72
2021/03/02 09:12:05;;;;;;;15.77;8.95;;;;;;;;;;5090755;28;20545;-71
2021/03/02 09:14:35;;;;;;;14.43;9.43;;;;;;;;;;5089227;28;20186;-71
2021/03/02 09:17:06;;;;;;;15.63;9.13;;;;;;;;;;5089227;28;20435;-70
2021/03/02 09:19:32;;;;;;;14.83;8.43;;;;;;;;;;5092511;28;20276;-70
2021/03/02 09:21:58;;;;;;;17.17;8.97;;;;;;;;;;5084881;28;20507;-77
2021/03/02 09:24:25;;;;;;;14.10;9.23;;;;;;;;;;5092360;28;20435;-70
2021/03/02 09:27:23;;;;;;;9.50;6.80;;;;;;;;;;5090220;28;20200;-71
2021/03/02 09:29:51;;;;;;;14.10;7.90;;;;;;;;;;5047948;28;20425;-70
2021/03/02 09:32:22;;;;;;;14.30;9.33;;;;;;;;;;5087179;28;20424;-70
2021/03/02 09:34:48;;;;;;;14.73;8.73;;;;;;;;;;5091700;28;20413;-70
2021/03/02 09:37:15;;;;;;;12.63;8.60;;;;;;;;;;5090311;28;20548;-73
2021/03/02 09:39:42;;;;;;;12.67;8.00;;;;;;;;;;5088652;28;20444;-69
2021/03/02 09:42:16;;;;;;;21.13;8.20;;;;;;;;;;5086414;28;20458;-70
2021/03/02 09:44:50;;;;;;;12.47;8.30;;;;;;;;;;5090030;28;20829;-71
2021/03/02 09:47:18;;;;;;;14.30;7.30;;;;;;;;;;5090635;28;20935;-70
2021/03/02 09:49:45;;;;;;;18.13;8.63;;;;;;;;;;5090347;28;20794;-70
2021/03/02 09:52:20;;;;;;;19.23;8.70;;;;;;;;;;5082758;28;21004;-72
2021/03/02 09:55:07;;;;;;;14.10;8.40;;;;;;;;;;5089009;28;20656;-74
2021/03/02 09:57:33;;;;;;;12.57;8.07;;;;;;;;;;5091626;28;20449;-69
2021/03/02 10:00:08;;;;;;;13.03;8.33;;;;;;;;;;5084300;28;20430;-70
2021/03/02 10:02:37;;;;;;;13.30;9.00;;;;;;;;;;5088642;28;20419;-71
2021/03/02 10:05:03;;;;;;;13.70;7.63;;;;;;;;;;5085656;28;20419;-71
2021/03/02 10:07:39;;;;;;;13.53;7.97;;;;;;;;;;5066172;28;20505;-70
2021/03/02 10:10:05;;;;;;;19.43;8.70;;;;;;;;;;5081799;28;20453;-68
2021/03/02 10:12:31;;;;;;;12.60;7.90;;;;;;;;;;5079540;28;20993;-68
2021/03/02 10:14:57;;;;;;;13.52;7.95;;;;;;;;;;5080562;28;20434;-71
2021/03/02 10:17:33;;;;;;;11.23;7.73;;;;;;;;;;5086773;28;20264;-69
2021/03/02 10:20:06;;;;;;;9.43;7.60;;;;;;;;;;5083080;28;20478;-71
2021/03/02 10:22:34;;;;;;;11.35;8.00;;;;;;;;;;5061960;28;20449;-71
2021/03/02 10:25:02;;;;;;;15.43;9.20;;;;;;;;;;5067018;28;20173;-71
2021/03/02 10:27:28;;;;;;;19.03;8.37;;;;;;;;;;5083429;28;20852;-70
2021/03/02 10:29:54;;;;;;;10.63;8.07;;;;;;;;;;5077108;28;20429;-71
2021/03/02 10:32:20;;;;;;;14.35;8.50;;;;;;;;;;5079289;28;20412;-74
2021/03/02 10:34:46;;;;;;;10.53;8.27;;;;;;;;;;5081240;28;20180;-72
2021/03/02 10:37:14;;;;;;;12.07;8.83;;;;;;;;;;5082671;28;20808;-74
2021/03/02 10:39:41;;;;;;;15.97;8.63;;;;;;;;;;5079883;28;21037;-77
2021/03/02 10:42:10;;;;;;;13.68;8.35;;;;;;;;;;5078397;28;20470;-69
2021/03/02 10:44:37;;;;;;;18.63;8.83;;;;;;;;;;5086898;28;20177;-76
2021/03/02 10:47:03;;;;;;;13.17;8.43;;;;;;;;;;5079326;28;20463;-77
2021/03/02 10:49:29;;;;;;;12.77;7.70;;;;;;;;;;5082565;28;20473;-75
2021/03/02 10:51:55;;;;;;;16.10;8.10;;;;;;;;;;5082179;28;20664;-72
2021/03/02 10:54:21;;;;;;;14.70;8.57;;;;;;;;;;5081067;28;20414;-71
2021/03/02 10:56:47;;;;;;;12.70;8.60;;;;;;;;;;5083011;28;20196;-72
2021/03/02 10:59:13;;;;;;;13.60;8.80;;;;;;;;;;5081756;28;20451;-72
2021/03/02 11:01:39;;;;;;;12.93;8.97;;;;;;;;;;5089074;28;21063;-76
2021/03/02 11:04:05;;;;;;;17.50;8.60;;;;;;;;;;5089371;28;20418;-71
2021/03/02 11:06:31;;;;;;;17.83;8.37;;;;;;;;;;5087270;28;20538;-73
2021/03/02 11:08:59;;;;;;;13.00;8.97;;;;;;;;;;5091795;28;20421;-71
2021/03/02 11:11:25;;;;;;;16.97;9.80;;;;;;;;;;5083806;28;20785;-72
2021/03/02 11:13:52;;;;;;;13.33;8.80;;;;;;;;;;5083995;28;20425;-72
2021/03/02 11:16:18;;;;;;;12.27;8.00;;;;;;;;;;5071969;28;20431;-70
2021/03/02 11:18:44;;;;;;;15.57;9.37;;;;;;;;;;5094994;28;20977;-71
2021/03/02 11:21:12;;;;;;;13.33;8.80;;;;;;;;;;5088747;28;20434;-70
2021/03/02 11:23:39;;;;;;;15.13;8.93;;;;;;;;;;5083837;28;20428;-69
2021/03/02 11:26:05;;;;;;;12.90;10.00;;;;;;;;;;5082426;28;20450;-71
2021/03/02 11:28:31;;;;;;;17.90;8.47;;;;;;;;;;5085419;28;20991;-74
2021/03/02 11:30:57;;;;;;;11.98;8.77;;;;;;;;;;5071658;28;20412;-71
2021/03/02 11:33:23;;;;;;;15.83;9.83;;;;;;;;;;5083795;28;20198;-71
2021/03/02 11:35:49;;;;;;;18.33;9.70;;;;;;;;;;5081588;28;20452;-72
2021/03/02 11:38:15;;;;;;;15.37;9.37;;;;;;;;;;5080429;28;20461;-70
2021/03/02 11:40:42;;;;;;;19.40;9.97;;;;;;;;;;5083141;28;20855;-71
2021/03/02 11:43:08;;;;;;;14.97;9.33;;;;;;;;;;5085816;28;20516;-72
2021/03/02 11:45:36;;;;;;;16.60;9.40;;;;;;;;;;5089541;28;20499;-71
2021/03/02 11:48:08;;;;;;;15.20;9.20;;;;;;;;;;5088889;28;20214;-71
2021/03/02 11:50:34;;;;;;;20.87;9.80;;;;;;;;;;5081235;28;20422;-72
2021/03/02 11:53:01;;;;;;;19.20;9.33;;;;;;;;;;5079132;28;20423;-72
2021/03/02 11:55:27;;;;;;;14.53;9.90;;;;;;;;;;5077361;28;20424;-72
2021/03/02 11:57:53;;;;;;;12.88;9.65;;;;;;;;;;5082304;28;20425;-72
2021/03/02 12:00:21;;;;;;;19.20;10.50;;;;;;;;;;5104225;28;20225;-73
2021/03/02 12:02:48;;;;;;;15.87;8.73;;;;;;;;;;5088856;28;20420;-72
2021/03/02 12:05:14;;;;;;;16.33;9.27;;;;;;;;;;5082111;28;20439;-72
2021/03/02 12:07:40;;;;;;;18.63;8.80;;;;;;;;;;5071807;28;20433;-72
2021/03/02 12:10:08;;;;;;;10.80;7.40;;;;;;;;;;5091061;28;20411;-72
2021/03/02 12:12:34;;;;;;;16.93;8.03;;;;;;;;;;5089071;28;20469;-73
2021/03/02 12:15:00;;;;;;;12.60;8.03;;;;;;;;;;5070739;28;20450;-73
2021/03/02 12:17:26;;;;;;;16.30;8.23;;;;;;;;;;5088581;28;20459;-73
2021/03/02 12:19:52;;;;;;;15.97;8.50;;;;;;;;;;5075624;28;20407;-73
2021/03/02 12:22:18;;;;;;;11.03;7.97;;;;;;;;;;5091783;28;20785;-72
2021/03/02 12:24:44;;;;;;;11.20;8.00;;;;;;;;;;5088353;28;20415;-73
2021/03/02 12:27:11;;;;;;;14.97;10.13;;;;;;;;;;5090025;28;20482;-73
2021/03/02 12:29:37;;;;;;;15.73;8.13;;;;;;;;;;5085749;28;20472;-73
2021/03/02 12:32:03;;;;;;;13.33;8.20;;;;;;;;;;5083012;28;20422;-73
2021/03/02 12:34:29;;;;;;;14.70;8.93;;;;;;;;;;5093593;28;21023;-72
2021/03/02 12:36:56;;;;;;;12.80;7.80;;;;;;;;;;5092905;28;20435;-73
2021/03/02 12:39:22;;;;;;;13.57;8.63;;;;;;;;;;5091354;28;20439;-72
2021/03/02 12:41:48;;;;;;;11.50;8.33;;;;;;;;;;5084532;28;20517;-72
2021/03/02 12:44:14;;;;;;;12.50;7.27;;;;;;;;;;5093039;28;20472;-72
2021/03/02 12:46:40;;;;;;;16.57;7.83;;;;;;;;;;5093716;28;20449;-73
2021/03/02 12:49:06;;;;;;;12.13;7.50;;;;;;;;;;5092207;28;20438;-72
2021/03/02 12:51:32;;;;;;;14.13;9.03;;;;;;;;;;5093903;28;20450;-72
2021/03/02 12:53:58;;;;;;;17.17;8.37;;;;;;;;;;5091575;28;20938;-73
2021/03/02 12:56:25;;;;;;;20.30;8.33;;;;;;;;;;5092610;28;20490;-73
2021/03/02 12:58:51;;;;;;;14.67;8.37;;;;;;;;;;5090503;28;20466;-72
2021/03/02 13:01:17;;;;;;;14.90;8.03;;;;;;;;;;5072333;28;20431;-72
2021/03/02 13:03:43;;;;;;;14.60;7.70;;;;;;;;;;5092054;28;20911;-72
2021/03/02 13:06:09;;;;;;;13.37;9.07;;;;;;;;;;5093384;28;20798;-72
2021/03/02 13:08:37;;;;;;;13.10;8.07;;;;;;;;;;5092102;28;20445;-72
2021/03/02 13:11:04;;;;;;;16.07;10.13;;;;;;;;;;5084105;28;20431;-72
2021/03/02 13:13:30;;;;;;;13.07;7.63;;;;;;;;;;5084520;28;20454;-72
2021/03/02 13:15:56;;;;;;;12.93;7.10;;;;;;;;;;5094188;28;20425;-72
2021/03/02 13:18:22;;;;;;;15.50;7.00;;;;;;;;;;5092473;28;20939;-73
2021/03/02 13:20:49;;;;;;;9.67;7.33;;;;;;;;;;5093279;28;20421;-72
2021/03/02 13:23:15;;;;;;;14.90;8.73;;;;;;;;;;5092503;28;20440;-72
2021/03/02 13:25:41;;;;;;;12.40;7.60;;;;;;;;;;5093695;28;20443;-72
2021/03/02 13:28:07;;;;;;;12.47;7.93;;;;;;;;;;5092345;28;20455;-73
2021/03/02 13:30:34;;;;;;;11.83;6.80;;;;;;;;;;5090570;28;20842;-70
2021/03/02 13:33:09;;;;;;;10.90;7.57;;;;;;;;;;5088566;28;20965;-72
2021/03/02 13:35:36;;;;;;;13.43;7.63;;;;;;;;;;5089679;28;20442;-72
2021/03/02 13:38:03;;;;;;;11.27;7.30;;;;;;;;;;5071842;28;20483;-72
2021/03/02 13:40:29;;;;;;;13.37;7.60;;;;;;;;;;5092168;28;20433;-70
2021/03/02 13:42:56;;;;;;;19.30;8.90;;;;;;;;;;5091539;28;20504;-70
2021/03/02 13:45:24;;;;;;;11.70;7.87;;;;;;;;;;5090325;28;20415;-70
2021/03/02 13:47:53;;;;;;;15.13;8.10;;;;;;;;;;5090492;28;20437;-69
2021/03/02 13:50:19;;;;;;;12.47;7.27;;;;;;;;;;5088738;28;21285;-69
2021/03/02 13:52:45;;;;;;;15.20;7.60;;;;;;;;;;5087096;28;20434;-71
2021/03/02 13:55:11;;;;;;;17.00;8.30;;;;;;;;;;5101279;28;20404;-71
2021/03/02 13:57:38;;;;;;;12.97;8.07;;;;;;;;;;5095205;28;20764;-71
2021/03/02 14:00:12;;;;;;;13.77;7.87;;;;;;;;;;5088695;28;20474;-71
2021/03/02 14:02:39;;;;;;;13.07;7.83;;;;;;;;;;5089548;28;20433;-72
2021/03/02 14:05:05;;;;;;;15.03;8.93;;;;;;;;;;5089215;28;20518;-71
2021/03/02 14:07:32;;;;;;;14.90;7.70;;;;;;;;;;5069600;28;20490;-71
2021/03/02 14:09:58;;;;;;;14.70;8.17;;;;;;;;;;5090201;28;20435;-71
2021/03/02 14:12:25;;;;;;;13.60;8.07;;;;;;;;;;5091948;28;20423;-71
2021/03/02 14:14:52;;;;;;;12.17;8.20;;;;;;;;;;5092199;28;20419;-72
2021/03/02 14:17:21;;;;;;;10.90;7.90;;;;;;;;;;5089843;28;20478;-71
2021/03/02 14:19:47;;;;;;;12.60;8.00;;;;;;;;;;5081974;28;20420;-71
2021/03/02 14:22:13;;;;;;;11.73;6.73;;;;;;;;;;5080930;28;20932;-72
2021/03/02 14:24:41;;;;;;;11.80;7.00;;;;;;;;;;5081276;28;20428;-71
2021/03/02 14:27:07;;;;;;;10.47;6.17;;;;;;;;;;5081802;28;20659;-71
2021/03/02 14:29:33;;;;;;;15.87;8.30;;;;;;;;;;5080956;28;20429;-71
2021/03/02 14:32:00;;;;;;;10.57;6.73;;;;;;;;;;5081965;28;20511;-71
2021/03/02 14:34:26;;;;;;;14.73;8.00;;;;;;;;;;5081055;28;20440;-71